sensor_id;sensor_type;location;lat;lon;timestamp;P1;durP1;ratioP1;P2;durP2;ratioP2
55800;SDS011;41730;51.960;20.158;2022-07-12T00:00:50;3.70;;;1.40;;
55800;SDS011;41730;51.960;20.158;2022-07-12T00:03:19;2.80;;;1.60;;
55800;SDS011;41730;51.960;20.158;2022-07-12T00:05:49;3.60;;;1.50;;
55800;SDS011;41730;51.960;20.158;2022-07-12T00:08:21;3.10;;;1.50;;
55800;SDS011;41730;51.960;20.158;2022-07-12T00:10:55;2.80;;;1.20;;
55800;SDS011;41730;51.960;20.158;2022-07-12T00:13:25;3.90;;;1.70;;
55800;SDS011;41730;51.960;20.158;2022-07-12T00:15:56;3.90;;;1.50;;
55800;SDS011;41730;51.960;20.158;2022-07-12T00:18:26;3.90;;;1.70;;
55800;SDS011;41730;51.960;20.158;2022-07-12T00:20:55;3.70;;;1.60;;
55800;SDS011;41730;51.960;20.158;2022-07-12T00:23:24;4.40;;;1.60;;
55800;SDS011;41730;51.960;20.158;2022-07-12T00:25:52;3.90;;;1.80;;
55800;SDS011;41730;51.960;20.158;2022-07-12T00:28:22;4.00;;;1.70;;
55800;SDS011;41730;51.960;20.158;2022-07-12T00:30:51;4.50;;;1.80;;
55800;SDS011;41730;51.960;20.158;2022-07-12T00:33:20;3.60;;;1.70;;
55800;SDS011;41730;51.960;20.158;2022-07-12T00:35:49;4.20;;;1.60;;
55800;SDS011;41730;51.960;20.158;2022-07-12T00:38:18;3.00;;;1.50;;
55800;SDS011;41730;51.960;20.158;2022-07-12T00:40:47;4.30;;;1.70;;
55800;SDS011;41730;51.960;20.158;2022-07-12T00:43:16;3.10;;;1.50;;
55800;SDS011;41730;51.960;20.158;2022-07-12T00:45:45;3.30;;;1.80;;
55800;SDS011;41730;51.960;20.158;2022-07-12T00:48:14;2.40;;;1.40;;
55800;SDS011;41730;51.960;20.158;2022-07-12T00:50:45;4.20;;;1.90;;
55800;SDS011;41730;51.960;20.158;2022-07-12T00:53:15;3.30;;;1.70;;
55800;SDS011;41730;51.960;20.158;2022-07-12T00:55:53;4.10;;;1.70;;
55800;SDS011;41730;51.960;20.158;2022-07-12T00:58:22;3.30;;;1.70;;
55800;SDS011;41730;51.960;20.158;2022-07-12T01:00:53;4.90;;;1.70;;
55800;SDS011;41730;51.960;20.158;2022-07-12T01:03:24;4.10;;;1.40;;
55800;SDS011;41730;51.960;20.158;2022-07-12T01:05:54;4.50;;;1.60;;
55800;SDS011;41730;51.960;20.158;2022-07-12T01:08:23;3.10;;;1.60;;
55800;SDS011;41730;51.960;20.158;2022-07-12T01:10:54;4.00;;;1.50;;
55800;SDS011;41730;51.960;20.158;2022-07-12T01:13:23;2.70;;;1.60;;
55800;SDS011;41730;51.960;20.158;2022-07-12T01:15:53;3.00;;;1.30;;
55800;SDS011;41730;51.960;20.158;2022-07-12T01:18:22;3.50;;;1.50;;
55800;SDS011;41730;51.960;20.158;2022-07-12T01:20:53;2.30;;;1.60;;
55800;SDS011;41730;51.960;20.158;2022-07-12T01:23:23;3.80;;;1.40;;
55800;SDS011;41730;51.960;20.158;2022-07-12T01:25:54;2.70;;;1.40;;
55800;SDS011;41730;51.960;20.158;2022-07-12T01:28:39;3.20;;;1.60;;
55800;SDS011;41730;51.960;20.158;2022-07-12T01:31:08;2.50;;;1.50;;
55800;SDS011;41730;51.960;20.158;2022-07-12T01:33:37;4.50;;;1.90;;
55800;SDS011;41730;51.960;20.158;2022-07-12T01:36:06;3.20;;;1.50;;
55800;SDS011;41730;51.960;20.158;2022-07-12T01:38:36;2.90;;;1.50;;
55800;SDS011;41730;51.960;20.158;2022-07-12T01:41:05;3.10;;;1.40;;
55800;SDS011;41730;51.960;20.158;2022-07-12T01:43:35;3.00;;;1.70;;
55800;SDS011;41730;51.960;20.158;2022-07-12T01:46:05;3.80;;;1.70;;
55800;SDS011;41730;51.960;20.158;2022-07-12T01:48:34;2.60;;;1.30;;
55800;SDS011;41730;51.960;20.158;2022-07-12T01:51:03;3.20;;;1.60;;
55800;SDS011;41730;51.960;20.158;2022-07-12T01:53:33;2.50;;;1.30;;
55800;SDS011;41730;51.960;20.158;2022-07-12T01:56:04;2.80;;;1.50;;
55800;SDS011;41730;51.960;20.158;2022-07-12T01:58:33;2.50;;;1.60;;
55800;SDS011;41730;51.960;20.158;2022-07-12T02:01:04;3.10;;;1.60;;
55800;SDS011;41730;51.960;20.158;2022-07-12T02:03:34;3.70;;;1.50;;
55800;SDS011;41730;51.960;20.158;2022-07-12T02:06:04;5.50;;;1.40;;
55800;SDS011;41730;51.960;20.158;2022-07-12T02:08:33;2.10;;;1.30;;
55800;SDS011;41730;51.960;20.158;2022-07-12T02:11:02;2.50;;;1.30;;
55800;SDS011;41730;51.960;20.158;2022-07-12T02:13:32;3.50;;;1.60;;
55800;SDS011;41730;51.960;20.158;2022-07-12T02:16:01;4.50;;;1.60;;
55800;SDS011;41730;51.960;20.158;2022-07-12T02:18:32;4.70;;;1.70;;
55800;SDS011;41730;51.960;20.158;2022-07-12T02:21:05;3.50;;;1.60;;
55800;SDS011;41730;51.960;20.158;2022-07-12T02:23:34;4.50;;;1.50;;
55800;SDS011;41730;51.960;20.158;2022-07-12T02:26:03;2.60;;;1.20;;
55800;SDS011;41730;51.960;20.158;2022-07-12T02:28:32;2.20;;;1.50;;
55800;SDS011;41730;51.960;20.158;2022-07-12T02:31:01;3.70;;;1.60;;
55800;SDS011;41730;51.960;20.158;2022-07-12T02:33:36;3.20;;;1.60;;
55800;SDS011;41730;51.960;20.158;2022-07-12T02:36:07;2.90;;;1.60;;
55800;SDS011;41730;51.960;20.158;2022-07-12T02:38:36;3.20;;;1.60;;
55800;SDS011;41730;51.960;20.158;2022-07-12T02:41:05;4.50;;;1.60;;
55800;SDS011;41730;51.960;20.158;2022-07-12T02:43:34;3.50;;;1.70;;
55800;SDS011;41730;51.960;20.158;2022-07-12T02:46:03;3.50;;;1.60;;
55800;SDS011;41730;51.960;20.158;2022-07-12T02:48:34;3.00;;;1.30;;
55800;SDS011;41730;51.960;20.158;2022-07-12T02:51:04;2.40;;;1.20;;
55800;SDS011;41730;51.960;20.158;2022-07-12T02:53:34;4.40;;;1.50;;
55800;SDS011;41730;51.960;20.158;2022-07-12T02:56:08;3.30;;;1.80;;
55800;SDS011;41730;51.960;20.158;2022-07-12T02:58:38;3.40;;;1.60;;
55800;SDS011;41730;51.960;20.158;2022-07-12T03:01:08;4.00;;;1.80;;
55800;SDS011;41730;51.960;20.158;2022-07-12T03:03:38;4.20;;;1.70;;
55800;SDS011;41730;51.960;20.158;2022-07-12T03:06:06;2.90;;;1.70;;
55800;SDS011;41730;51.960;20.158;2022-07-12T03:08:35;2.70;;;1.60;;
55800;SDS011;41730;51.960;20.158;2022-07-12T03:11:04;3.90;;;1.40;;
55800;SDS011;41730;51.960;20.158;2022-07-12T03:13:33;3.70;;;1.50;;
55800;SDS011;41730;51.960;20.158;2022-07-12T03:16:02;2.60;;;1.50;;
55800;SDS011;41730;51.960;20.158;2022-07-12T03:18:32;3.00;;;1.40;;
55800;SDS011;41730;51.960;20.158;2022-07-12T03:21:02;3.50;;;1.40;;
55800;SDS011;41730;51.960;20.158;2022-07-12T03:23:36;2.40;;;1.30;;
55800;SDS011;41730;51.960;20.158;2022-07-12T03:26:26;2.60;;;1.50;;
55800;SDS011;41730;51.960;20.158;2022-07-12T03:29:20;2.80;;;1.70;;
55800;SDS011;41730;51.960;20.158;2022-07-12T03:32:12;3.20;;;1.70;;
55800;SDS011;41730;51.960;20.158;2022-07-12T03:35:09;3.70;;;1.50;;
55800;SDS011;41730;51.960;20.158;2022-07-12T03:38:05;2.60;;;1.40;;
55800;SDS011;41730;51.960;20.158;2022-07-12T03:40:54;2.80;;;1.30;;
55800;SDS011;41730;51.960;20.158;2022-07-12T03:43:40;3.30;;;1.50;;
55800;SDS011;41730;51.960;20.158;2022-07-12T03:46:27;5.70;;;1.20;;
55800;SDS011;41730;51.960;20.158;2022-07-12T03:49:09;2.40;;;1.20;;
55800;SDS011;41730;51.960;20.158;2022-07-12T03:51:38;3.10;;;1.50;;
55800;SDS011;41730;51.960;20.158;2022-07-12T03:54:07;2.50;;;1.20;;
55800;SDS011;41730;51.960;20.158;2022-07-12T03:56:36;3.30;;;1.40;;
55800;SDS011;41730;51.960;20.158;2022-07-12T03:59:23;2.30;;;1.40;;
55800;SDS011;41730;51.960;20.158;2022-07-12T04:01:52;4.20;;;1.30;;
55800;SDS011;41730;51.960;20.158;2022-07-12T04:04:21;3.20;;;1.40;;
55800;SDS011;41730;51.960;20.158;2022-07-12T04:06:54;2.50;;;1.50;;
55800;SDS011;41730;51.960;20.158;2022-07-12T04:09:33;4.10;;;1.50;;
55800;SDS011;41730;51.960;20.158;2022-07-12T04:12:03;2.80;;;1.40;;
55800;SDS011;41730;51.960;20.158;2022-07-12T04:14:33;2.80;;;1.40;;
55800;SDS011;41730;51.960;20.158;2022-07-12T04:17:04;3.50;;;1.40;;
55800;SDS011;41730;51.960;20.158;2022-07-12T04:19:34;6.80;;;1.60;;
55800;SDS011;41730;51.960;20.158;2022-07-12T04:22:10;2.90;;;1.60;;
55800;SDS011;41730;51.960;20.158;2022-07-12T04:27:07;3.10;;;1.70;;
55800;SDS011;41730;51.960;20.158;2022-07-12T04:29:36;3.50;;;1.70;;
55800;SDS011;41730;51.960;20.158;2022-07-12T04:32:07;3.70;;;1.50;;
55800;SDS011;41730;51.960;20.158;2022-07-12T04:34:41;2.50;;;1.50;;
55800;SDS011;41730;51.960;20.158;2022-07-12T04:37:20;3.00;;;1.30;;
55800;SDS011;41730;51.960;20.158;2022-07-12T04:40:14;2.90;;;1.30;;
55800;SDS011;41730;51.960;20.158;2022-07-12T04:42:57;3.50;;;1.20;;
55800;SDS011;41730;51.960;20.158;2022-07-12T04:45:45;2.60;;;1.40;;
55800;SDS011;41730;51.960;20.158;2022-07-12T04:48:31;2.50;;;1.40;;
55800;SDS011;41730;51.960;20.158;2022-07-12T04:51:13;3.10;;;1.50;;
55800;SDS011;41730;51.960;20.158;2022-07-12T04:54:03;3.20;;;1.50;;
55800;SDS011;41730;51.960;20.158;2022-07-12T04:56:44;2.50;;;1.40;;
55800;SDS011;41730;51.960;20.158;2022-07-12T04:59:13;4.80;;;1.40;;
55800;SDS011;41730;51.960;20.158;2022-07-12T05:01:57;4.60;;;1.50;;
55800;SDS011;41730;51.960;20.158;2022-07-12T05:04:27;3.10;;;1.20;;
55800;SDS011;41730;51.960;20.158;2022-07-12T05:06:58;3.20;;;1.40;;
55800;SDS011;41730;51.960;20.158;2022-07-12T05:09:28;3.00;;;1.60;;
55800;SDS011;41730;51.960;20.158;2022-07-12T05:11:57;2.60;;;1.10;;
55800;SDS011;41730;51.960;20.158;2022-07-12T05:14:27;5.10;;;1.60;;
55800;SDS011;41730;51.960;20.158;2022-07-12T05:16:56;2.90;;;1.50;;
55800;SDS011;41730;51.960;20.158;2022-07-12T05:19:25;3.10;;;1.50;;
55800;SDS011;41730;51.960;20.158;2022-07-12T05:21:55;3.30;;;1.50;;
55800;SDS011;41730;51.960;20.158;2022-07-12T05:24:24;3.00;;;1.40;;
55800;SDS011;41730;51.960;20.158;2022-07-12T05:26:54;4.30;;;1.50;;
55800;SDS011;41730;51.960;20.158;2022-07-12T05:29:23;2.60;;;1.20;;
55800;SDS011;41730;51.960;20.158;2022-07-12T05:31:55;3.10;;;1.50;;
55800;SDS011;41730;51.960;20.158;2022-07-12T05:34:25;3.50;;;1.20;;
55800;SDS011;41730;51.960;20.158;2022-07-12T05:36:54;5.00;;;1.60;;
55800;SDS011;41730;51.960;20.158;2022-07-12T05:39:23;2.90;;;1.40;;
55800;SDS011;41730;51.960;20.158;2022-07-12T05:41:52;3.20;;;1.50;;
55800;SDS011;41730;51.960;20.158;2022-07-12T05:44:21;3.80;;;1.40;;
55800;SDS011;41730;51.960;20.158;2022-07-12T05:46:50;3.20;;;1.50;;
55800;SDS011;41730;51.960;20.158;2022-07-12T05:49:19;3.40;;;1.50;;
55800;SDS011;41730;51.960;20.158;2022-07-12T05:51:49;3.30;;;1.30;;
55800;SDS011;41730;51.960;20.158;2022-07-12T05:54:36;2.70;;;1.20;;
55800;SDS011;41730;51.960;20.158;2022-07-12T05:57:05;3.60;;;1.60;;
55800;SDS011;41730;51.960;20.158;2022-07-12T05:59:34;2.90;;;1.30;;
55800;SDS011;41730;51.960;20.158;2022-07-12T06:02:05;7.40;;;1.60;;
55800;SDS011;41730;51.960;20.158;2022-07-12T06:04:34;3.80;;;1.30;;
55800;SDS011;41730;51.960;20.158;2022-07-12T06:07:04;3.30;;;1.30;;
55800;SDS011;41730;51.960;20.158;2022-07-12T06:09:33;3.60;;;1.40;;
55800;SDS011;41730;51.960;20.158;2022-07-12T06:12:03;2.80;;;1.10;;
55800;SDS011;41730;51.960;20.158;2022-07-12T06:14:33;2.20;;;1.20;;
55800;SDS011;41730;51.960;20.158;2022-07-12T06:17:03;5.20;;;1.20;;
55800;SDS011;41730;51.960;20.158;2022-07-12T06:19:32;3.20;;;1.20;;
55800;SDS011;41730;51.960;20.158;2022-07-12T06:22:01;3.20;;;1.10;;
55800;SDS011;41730;51.960;20.158;2022-07-12T06:24:31;3.80;;;1.10;;
55800;SDS011;41730;51.960;20.158;2022-07-12T06:27:00;2.30;;;1.00;;
55800;SDS011;41730;51.960;20.158;2022-07-12T06:29:29;2.40;;;1.30;;
55800;SDS011;41730;51.960;20.158;2022-07-12T06:31:58;3.00;;;1.30;;
55800;SDS011;41730;51.960;20.158;2022-07-12T06:34:27;3.00;;;1.30;;
55800;SDS011;41730;51.960;20.158;2022-07-12T06:36:56;3.70;;;1.00;;
55800;SDS011;41730;51.960;20.158;2022-07-12T06:39:24;2.80;;;1.10;;
55800;SDS011;41730;51.960;20.158;2022-07-12T06:41:54;3.40;;;1.10;;
55800;SDS011;41730;51.960;20.158;2022-07-12T06:44:23;2.30;;;0.90;;
55800;SDS011;41730;51.960;20.158;2022-07-12T06:46:52;7.00;;;1.30;;
55800;SDS011;41730;51.960;20.158;2022-07-12T06:49:21;3.50;;;1.00;;
55800;SDS011;41730;51.960;20.158;2022-07-12T06:51:50;2.40;;;1.20;;
55800;SDS011;41730;51.960;20.158;2022-07-12T06:54:19;2.70;;;1.00;;
55800;SDS011;41730;51.960;20.158;2022-07-12T06:56:48;2.30;;;1.00;;
55800;SDS011;41730;51.960;20.158;2022-07-12T06:59:17;2.80;;;0.90;;
55800;SDS011;41730;51.960;20.158;2022-07-12T07:01:46;3.70;;;1.00;;
55800;SDS011;41730;51.960;20.158;2022-07-12T07:04:16;3.50;;;1.10;;
55800;SDS011;41730;51.960;20.158;2022-07-12T07:06:45;3.00;;;1.00;;
55800;SDS011;41730;51.960;20.158;2022-07-12T07:09:14;3.20;;;0.90;;
55800;SDS011;41730;51.960;20.158;2022-07-12T07:11:44;3.80;;;1.10;;
55800;SDS011;41730;51.960;20.158;2022-07-12T07:14:13;2.40;;;0.90;;
55800;SDS011;41730;51.960;20.158;2022-07-12T07:16:44;2.30;;;1.00;;
55800;SDS011;41730;51.960;20.158;2022-07-12T07:19:13;1.60;;;0.90;;
55800;SDS011;41730;51.960;20.158;2022-07-12T07:21:49;3.60;;;0.90;;
55800;SDS011;41730;51.960;20.158;2022-07-12T07:24:18;3.30;;;1.10;;
55800;SDS011;41730;51.960;20.158;2022-07-12T07:26:47;1.70;;;0.80;;
55800;SDS011;41730;51.960;20.158;2022-07-12T07:29:24;1.80;;;1.00;;
55800;SDS011;41730;51.960;20.158;2022-07-12T07:32:11;2.30;;;0.90;;
55800;SDS011;41730;51.960;20.158;2022-07-12T07:34:41;1.50;;;0.80;;
55800;SDS011;41730;51.960;20.158;2022-07-12T07:37:13;2.90;;;1.00;;
55800;SDS011;41730;51.960;20.158;2022-07-12T07:39:45;2.50;;;0.70;;
55800;SDS011;41730;51.960;20.158;2022-07-12T07:42:15;1.30;;;0.50;;
55800;SDS011;41730;51.960;20.158;2022-07-12T07:44:44;3.70;;;0.80;;
55800;SDS011;41730;51.960;20.158;2022-07-12T07:47:42;2.80;;;0.80;;
55800;SDS011;41730;51.960;20.158;2022-07-12T07:50:33;3.50;;;0.70;;
55800;SDS011;41730;51.960;20.158;2022-07-12T07:53:03;2.80;;;0.80;;
55800;SDS011;41730;51.960;20.158;2022-07-12T07:55:33;2.00;;;0.90;;
55800;SDS011;41730;51.960;20.158;2022-07-12T07:58:02;1.40;;;0.80;;
55800;SDS011;41730;51.960;20.158;2022-07-12T08:00:32;1.70;;;0.70;;
55800;SDS011;41730;51.960;20.158;2022-07-12T08:03:02;2.70;;;1.00;;
55800;SDS011;41730;51.960;20.158;2022-07-12T08:05:32;2.10;;;0.80;;
55800;SDS011;41730;51.960;20.158;2022-07-12T08:08:02;2.50;;;0.90;;
55800;SDS011;41730;51.960;20.158;2022-07-12T08:10:44;1.70;;;0.90;;
55800;SDS011;41730;51.960;20.158;2022-07-12T08:13:16;3.20;;;0.80;;
55800;SDS011;41730;51.960;20.158;2022-07-12T08:15:46;2.50;;;0.90;;
55800;SDS011;41730;51.960;20.158;2022-07-12T08:18:15;2.70;;;0.70;;
55800;SDS011;41730;51.960;20.158;2022-07-12T08:20:46;2.30;;;0.80;;
55800;SDS011;41730;51.960;20.158;2022-07-12T08:23:16;2.90;;;0.90;;
55800;SDS011;41730;51.960;20.158;2022-07-12T08:25:45;2.90;;;0.70;;
55800;SDS011;41730;51.960;20.158;2022-07-12T08:28:14;2.40;;;0.90;;
55800;SDS011;41730;51.960;20.158;2022-07-12T08:31:16;1.60;;;0.80;;
55800;SDS011;41730;51.960;20.158;2022-07-12T08:33:47;4.30;;;0.90;;
55800;SDS011;41730;51.960;20.158;2022-07-12T08:36:24;1.80;;;0.70;;
55800;SDS011;41730;51.960;20.158;2022-07-12T08:39:00;1.20;;;0.60;;
55800;SDS011;41730;51.960;20.158;2022-07-12T08:41:30;1.60;;;0.70;;
55800;SDS011;41730;51.960;20.158;2022-07-12T08:44:03;2.00;;;0.70;;
55800;SDS011;41730;51.960;20.158;2022-07-12T08:46:39;1.80;;;0.70;;
55800;SDS011;41730;51.960;20.158;2022-07-12T08:49:18;1.70;;;0.80;;
55800;SDS011;41730;51.960;20.158;2022-07-12T08:51:52;3.00;;;0.80;;
55800;SDS011;41730;51.960;20.158;2022-07-12T08:54:39;2.30;;;0.90;;
55800;SDS011;41730;51.960;20.158;2022-07-12T08:57:22;1.80;;;0.70;;
55800;SDS011;41730;51.960;20.158;2022-07-12T09:00:00;1.20;;;0.60;;
55800;SDS011;41730;51.960;20.158;2022-07-12T09:02:36;1.50;;;0.80;;
55800;SDS011;41730;51.960;20.158;2022-07-12T09:05:14;2.20;;;1.00;;
55800;SDS011;41730;51.960;20.158;2022-07-12T09:07:48;1.50;;;0.70;;
55800;SDS011;41730;51.960;20.158;2022-07-12T09:10:19;2.60;;;0.70;;
55800;SDS011;41730;51.960;20.158;2022-07-12T09:13:15;2.40;;;0.70;;
55800;SDS011;41730;51.960;20.158;2022-07-12T09:15:44;1.40;;;0.60;;
55800;SDS011;41730;51.960;20.158;2022-07-12T09:18:17;2.30;;;0.80;;
55800;SDS011;41730;51.960;20.158;2022-07-12T09:20:56;2.30;;;0.90;;
55800;SDS011;41730;51.960;20.158;2022-07-12T09:23:51;2.00;;;0.50;;
55800;SDS011;41730;51.960;20.158;2022-07-12T09:26:22;1.40;;;0.80;;
55800;SDS011;41730;51.960;20.158;2022-07-12T09:28:55;2.80;;;0.90;;
55800;SDS011;41730;51.960;20.158;2022-07-12T09:32:23;3.70;;;0.90;;
55800;SDS011;41730;51.960;20.158;2022-07-12T09:35:13;2.30;;;0.80;;
55800;SDS011;41730;51.960;20.158;2022-07-12T09:38:08;6.10;;;1.40;;
55800;SDS011;41730;51.960;20.158;2022-07-12T09:40:37;2.40;;;1.10;;
55800;SDS011;41730;51.960;20.158;2022-07-12T09:43:06;3.50;;;1.30;;
55800;SDS011;41730;51.960;20.158;2022-07-12T09:45:36;2.70;;;1.00;;
55800;SDS011;41730;51.960;20.158;2022-07-12T09:48:07;1.70;;;0.80;;
55800;SDS011;41730;51.960;20.158;2022-07-12T09:50:38;2.00;;;0.70;;
55800;SDS011;41730;51.960;20.158;2022-07-12T09:53:08;2.90;;;0.70;;
55800;SDS011;41730;51.960;20.158;2022-07-12T09:55:38;1.70;;;0.50;;
55800;SDS011;41730;51.960;20.158;2022-07-12T09:58:09;2.70;;;0.90;;
55800;SDS011;41730;51.960;20.158;2022-07-12T10:00:40;1.50;;;0.60;;
55800;SDS011;41730;51.960;20.158;2022-07-12T10:03:10;1.70;;;0.80;;
55800;SDS011;41730;51.960;20.158;2022-07-12T10:05:42;1.50;;;0.80;;
55800;SDS011;41730;51.960;20.158;2022-07-12T10:08:15;2.20;;;0.80;;
55800;SDS011;41730;51.960;20.158;2022-07-12T10:10:52;4.50;;;0.90;;
55800;SDS011;41730;51.960;20.158;2022-07-12T10:13:35;2.70;;;0.70;;
55800;SDS011;41730;51.960;20.158;2022-07-12T10:16:28;2.80;;;0.90;;
55800;SDS011;41730;51.960;20.158;2022-07-12T10:21:55;3.70;;;0.70;;
55800;SDS011;41730;51.960;20.158;2022-07-12T10:27:31;1.60;;;0.80;;
55800;SDS011;41730;51.960;20.158;2022-07-12T10:30:15;2.90;;;0.80;;
55800;SDS011;41730;51.960;20.158;2022-07-12T10:32:46;1.50;;;0.60;;
55800;SDS011;41730;51.960;20.158;2022-07-12T10:35:16;2.30;;;0.60;;
55800;SDS011;41730;51.960;20.158;2022-07-12T10:40:47;1.50;;;0.70;;
55800;SDS011;41730;51.960;20.158;2022-07-12T10:46:22;1.60;;;0.90;;
55800;SDS011;41730;51.960;20.158;2022-07-12T10:54:42;1.70;;;0.80;;
55800;SDS011;41730;51.960;20.158;2022-07-12T10:57:17;2.60;;;0.80;;
55800;SDS011;41730;51.960;20.158;2022-07-12T11:00:13;2.60;;;0.80;;
55800;SDS011;41730;51.960;20.158;2022-07-12T11:02:42;1.40;;;0.70;;
55800;SDS011;41730;51.960;20.158;2022-07-12T11:05:11;1.90;;;0.90;;
55800;SDS011;41730;51.960;20.158;2022-07-12T11:07:45;1.60;;;0.80;;
55800;SDS011;41730;51.960;20.158;2022-07-12T11:15:56;3.70;;;0.90;;
55800;SDS011;41730;51.960;20.158;2022-07-12T11:18:28;1.70;;;0.90;;
55800;SDS011;41730;51.960;20.158;2022-07-12T11:21:01;1.50;;;0.70;;
55800;SDS011;41730;51.960;20.158;2022-07-12T11:23:30;3.70;;;0.90;;
55800;SDS011;41730;51.960;20.158;2022-07-12T11:26:00;2.40;;;0.80;;
55800;SDS011;41730;51.960;20.158;2022-07-12T11:28:31;1.90;;;0.90;;
55800;SDS011;41730;51.960;20.158;2022-07-12T11:31:04;1.70;;;0.80;;
55800;SDS011;41730;51.960;20.158;2022-07-12T11:33:35;1.50;;;0.90;;
55800;SDS011;41730;51.960;20.158;2022-07-12T11:36:06;2.30;;;0.90;;
55800;SDS011;41730;51.960;20.158;2022-07-12T11:38:36;2.90;;;0.80;;
55800;SDS011;41730;51.960;20.158;2022-07-12T11:43:40;1.70;;;0.90;;
55800;SDS011;41730;51.960;20.158;2022-07-12T11:46:09;2.50;;;0.80;;
55800;SDS011;41730;51.960;20.158;2022-07-12T11:48:40;1.60;;;0.70;;
55800;SDS011;41730;51.960;20.158;2022-07-12T11:51:10;2.60;;;0.90;;
55800;SDS011;41730;51.960;20.158;2022-07-12T11:53:40;1.80;;;0.80;;
55800;SDS011;41730;51.960;20.158;2022-07-12T11:56:09;3.80;;;1.00;;
55800;SDS011;41730;51.960;20.158;2022-07-12T11:58:38;1.60;;;0.90;;
55800;SDS011;41730;51.960;20.158;2022-07-12T12:01:10;1.90;;;1.00;;
55800;SDS011;41730;51.960;20.158;2022-07-12T12:03:43;3.10;;;0.90;;
55800;SDS011;41730;51.960;20.158;2022-07-12T12:06:12;1.10;;;0.60;;
55800;SDS011;41730;51.960;20.158;2022-07-12T12:08:42;1.70;;;0.70;;
55800;SDS011;41730;51.960;20.158;2022-07-12T12:11:12;1.90;;;0.80;;
55800;SDS011;41730;51.960;20.158;2022-07-12T12:13:42;1.70;;;0.90;;
55800;SDS011;41730;51.960;20.158;2022-07-12T12:16:23;1.70;;;0.80;;
55800;SDS011;41730;51.960;20.158;2022-07-12T12:18:52;2.10;;;0.90;;
55800;SDS011;41730;51.960;20.158;2022-07-12T12:21:25;2.30;;;0.90;;
55800;SDS011;41730;51.960;20.158;2022-07-12T12:24:07;1.40;;;0.60;;
55800;SDS011;41730;51.960;20.158;2022-07-12T12:26:37;1.20;;;0.60;;
55800;SDS011;41730;51.960;20.158;2022-07-12T12:29:06;2.00;;;0.70;;
55800;SDS011;41730;51.960;20.158;2022-07-12T12:31:35;2.40;;;0.80;;
55800;SDS011;41730;51.960;20.158;2022-07-12T12:34:13;1.10;;;0.60;;
55800;SDS011;41730;51.960;20.158;2022-07-12T12:37:04;1.30;;;0.50;;
55800;SDS011;41730;51.960;20.158;2022-07-12T12:39:34;1.60;;;0.50;;
55800;SDS011;41730;51.960;20.158;2022-07-12T12:42:03;2.40;;;0.90;;
55800;SDS011;41730;51.960;20.158;2022-07-12T12:44:34;3.10;;;0.70;;
55800;SDS011;41730;51.960;20.158;2022-07-12T12:47:06;2.90;;;0.80;;
55800;SDS011;41730;51.960;20.158;2022-07-12T12:49:53;2.30;;;0.80;;
55800;SDS011;41730;51.960;20.158;2022-07-12T12:52:24;2.80;;;0.60;;
55800;SDS011;41730;51.960;20.158;2022-07-12T12:54:57;2.10;;;0.70;;
55800;SDS011;41730;51.960;20.158;2022-07-12T12:57:26;2.60;;;0.70;;
55800;SDS011;41730;51.960;20.158;2022-07-12T12:59:55;1.80;;;0.60;;
55800;SDS011;41730;51.960;20.158;2022-07-12T13:02:28;2.50;;;0.80;;
55800;SDS011;41730;51.960;20.158;2022-07-12T13:05:07;1.50;;;0.60;;
55800;SDS011;41730;51.960;20.158;2022-07-12T13:07:53;1.60;;;0.70;;
55800;SDS011;41730;51.960;20.158;2022-07-12T13:10:28;1.80;;;0.70;;
55800;SDS011;41730;51.960;20.158;2022-07-12T13:13:00;1.20;;;0.60;;
55800;SDS011;41730;51.960;20.158;2022-07-12T13:15:31;1.40;;;0.70;;
55800;SDS011;41730;51.960;20.158;2022-07-12T13:18:01;2.90;;;0.60;;
55800;SDS011;41730;51.960;20.158;2022-07-12T13:20:31;4.50;;;0.70;;
55800;SDS011;41730;51.960;20.158;2022-07-12T13:23:03;1.50;;;0.60;;
55800;SDS011;41730;51.960;20.158;2022-07-12T13:25:34;3.30;;;0.60;;
55800;SDS011;41730;51.960;20.158;2022-07-12T13:28:04;1.10;;;0.60;;
55800;SDS011;41730;51.960;20.158;2022-07-12T13:30:33;2.50;;;0.60;;
55800;SDS011;41730;51.960;20.158;2022-07-12T13:33:02;1.50;;;0.70;;
55800;SDS011;41730;51.960;20.158;2022-07-12T13:35:31;2.00;;;0.60;;
55800;SDS011;41730;51.960;20.158;2022-07-12T13:38:00;1.30;;;0.70;;
55800;SDS011;41730;51.960;20.158;2022-07-12T13:40:29;2.80;;;0.60;;
55800;SDS011;41730;51.960;20.158;2022-07-12T13:42:58;2.60;;;0.70;;
55800;SDS011;41730;51.960;20.158;2022-07-12T13:45:27;0.90;;;0.60;;
55800;SDS011;41730;51.960;20.158;2022-07-12T13:47:56;3.30;;;0.70;;
55800;SDS011;41730;51.960;20.158;2022-07-12T13:50:27;1.60;;;0.60;;
55800;SDS011;41730;51.960;20.158;2022-07-12T13:52:59;2.40;;;0.60;;
55800;SDS011;41730;51.960;20.158;2022-07-12T13:55:28;2.00;;;0.70;;
55800;SDS011;41730;51.960;20.158;2022-07-12T13:57:58;2.30;;;0.80;;
55800;SDS011;41730;51.960;20.158;2022-07-12T14:00:27;5.60;;;0.80;;
55800;SDS011;41730;51.960;20.158;2022-07-12T14:02:56;2.30;;;0.70;;
55800;SDS011;41730;51.960;20.158;2022-07-12T14:05:29;1.70;;;0.60;;
55800;SDS011;41730;51.960;20.158;2022-07-12T14:07:58;2.20;;;0.70;;
55800;SDS011;41730;51.960;20.158;2022-07-12T14:10:30;2.70;;;0.60;;
55800;SDS011;41730;51.960;20.158;2022-07-12T14:13:00;1.10;;;0.50;;
55800;SDS011;41730;51.960;20.158;2022-07-12T14:15:30;2.20;;;0.80;;
55800;SDS011;41730;51.960;20.158;2022-07-12T14:18:10;2.40;;;0.60;;
55800;SDS011;41730;51.960;20.158;2022-07-12T14:20:39;1.50;;;0.60;;
55800;SDS011;41730;51.960;20.158;2022-07-12T14:23:08;5.00;;;0.50;;
55800;SDS011;41730;51.960;20.158;2022-07-12T14:25:40;2.60;;;0.60;;
55800;SDS011;41730;51.960;20.158;2022-07-12T14:28:09;1.80;;;0.60;;
55800;SDS011;41730;51.960;20.158;2022-07-12T14:30:38;2.50;;;0.70;;
55800;SDS011;41730;51.960;20.158;2022-07-12T14:33:07;1.40;;;0.70;;
55800;SDS011;41730;51.960;20.158;2022-07-12T14:35:36;1.50;;;0.60;;
55800;SDS011;41730;51.960;20.158;2022-07-12T14:38:05;2.10;;;0.60;;
55800;SDS011;41730;51.960;20.158;2022-07-12T14:40:34;2.50;;;0.70;;
55800;SDS011;41730;51.960;20.158;2022-07-12T14:43:04;2.00;;;0.70;;
55800;SDS011;41730;51.960;20.158;2022-07-12T14:45:34;1.40;;;0.70;;
55800;SDS011;41730;51.960;20.158;2022-07-12T14:48:03;7.30;;;1.10;;
55800;SDS011;41730;51.960;20.158;2022-07-12T14:50:33;1.60;;;0.60;;
55800;SDS011;41730;51.960;20.158;2022-07-12T14:53:02;1.80;;;0.60;;
55800;SDS011;41730;51.960;20.158;2022-07-12T14:55:31;2.90;;;0.60;;
55800;SDS011;41730;51.960;20.158;2022-07-12T14:58:00;3.60;;;0.60;;
55800;SDS011;41730;51.960;20.158;2022-07-12T15:00:29;1.80;;;0.60;;
55800;SDS011;41730;51.960;20.158;2022-07-12T15:02:58;1.30;;;0.70;;
55800;SDS011;41730;51.960;20.158;2022-07-12T15:05:29;1.30;;;0.70;;
55800;SDS011;41730;51.960;20.158;2022-07-12T15:07:58;2.00;;;0.60;;
55800;SDS011;41730;51.960;20.158;2022-07-12T15:10:27;2.00;;;0.60;;
55800;SDS011;41730;51.960;20.158;2022-07-12T15:12:56;2.60;;;0.60;;
55800;SDS011;41730;51.960;20.158;2022-07-12T15:15:26;1.90;;;0.70;;
55800;SDS011;41730;51.960;20.158;2022-07-12T15:17:55;1.30;;;0.60;;
55800;SDS011;41730;51.960;20.158;2022-07-12T15:20:25;2.10;;;0.70;;
55800;SDS011;41730;51.960;20.158;2022-07-12T15:23:00;2.40;;;0.60;;
55800;SDS011;41730;51.960;20.158;2022-07-12T15:25:29;2.90;;;0.70;;
55800;SDS011;41730;51.960;20.158;2022-07-12T15:27:58;1.80;;;0.50;;
55800;SDS011;41730;51.960;20.158;2022-07-12T15:30:28;1.80;;;0.70;;
55800;SDS011;41730;51.960;20.158;2022-07-12T15:32:57;1.00;;;0.50;;